Time,TemperatureF,DewpointF,PressureIn,WindDirection,WindDirectionDegrees,WindSpeedMPH,WindSpeedGustMPH,Humidity,HourlyPrecipIn,Conditions,Clouds,dailyrainin,SolarRadiationWatts/m^2,SoftwareType,DateUTC
2013-02-25 00:00:00,25.0,20.0,-100.00,SW,225,1.0,-999.0,80,-99.99,,,-99.99,0.000000,,2013-02-25 06:00:00,
2013-02-25 00:42:00,25.0,20.0,-100.00,SW,225,1.0,-999.0,80,-99.99,,,-99.99,0.000000,,2013-02-25 06:42:00,
2013-02-25 00:52:00,25.0,20.0,-100.00,SW,225,1.0,-999.0,80,-99.99,,,-99.99,0.000000,,2013-02-25 06:52:00,
2013-02-25 03:00:00,15.0,14.0,-100.00,SW,225,1.0,-999.0,95,-99.99,,,-99.99,0.000000,,2013-02-25 09:00:00,
2013-02-25 03:42:00,15.0,14.0,-100.00,SW,225,1.0,-999.0,95,-99.99,,,-99.99,0.000000,,2013-02-25 09:42:00,
2013-02-25 03:52:00,15.0,14.0,-100.00,SW,225,1.0,-999.0,95,-99.99,,,-99.99,0.000000,,2013-02-25 09:52:00,
2013-02-25 06:00:00,21.0,20.0,-100.00,SW,225,0.0,-999.0,94,-99.99,,,-99.99,0.000000,,2013-02-25 12:00:00,
2013-02-25 06:42:00,21.0,20.0,-100.00,SW,225,0.0,-999.0,94,-99.99,,,-99.99,0.000000,,2013-02-25 12:42:00,
2013-02-25 06:55:00,21.0,20.0,-100.00,SW,225,0.0,-999.0,94,-99.99,,,-99.99,0.000000,,2013-02-25 12:55:00,
2013-02-25 09:00:00,28.0,22.0,-100.00,West,270,1.0,-999.0,80,-99.99,,,-99.99,162.399994,,2013-02-25 15:00:00,
2013-02-25 09:42:00,28.0,22.0,-100.00,West,270,1.0,-999.0,80,-99.99,,,-99.99,162.399994,,2013-02-25 15:42:00,
2013-02-25 09:52:00,28.0,22.0,-100.00,West,270,1.0,-999.0,80,-99.99,,,-99.99,162.399994,,2013-02-25 15:52:00,
2013-02-25 12:00:00,35.0,21.0,-100.00,West,270,4.0,-999.0,56,0.02,,,-99.99,576.520020,,2013-02-25 18:00:00,
2013-02-25 12:42:00,35.0,21.0,-100.00,West,270,4.0,-999.0,56,0.02,,,-99.99,576.520020,,2013-02-25 18:42:00,
2013-02-25 12:52:00,35.0,21.0,-100.00,West,270,4.0,-999.0,56,0.02,,,-99.99,576.520020,,2013-02-25 18:52:00,
2013-02-25 15:00:00,37.0,25.0,-100.00,SSW,202,3.0,-999.0,59,-99.99,,,-99.99,378.160004,,2013-02-25 21:00:00,
2013-02-25 15:42:00,37.0,25.0,-100.00,SSW,202,3.0,-999.0,59,-99.99,,,-99.99,378.160004,,2013-02-25 21:42:00,
2013-02-25 15:52:00,37.0,25.0,-100.00,SSW,202,3.0,-999.0,59,-99.99,,,-99.99,378.160004,,2013-02-25 21:52:00,
2013-02-25 18:00:00,33.0,27.0,-100.00,SSE,157,2.0,-999.0,80,-99.99,,,-99.99,5.800000,,2013-02-26 00:00:00,
2013-02-25 18:42:00,33.0,27.0,-100.00,SSE,157,2.0,-999.0,80,-99.99,,,-99.99,5.800000,,2013-02-26 00:42:00,
2013-02-25 18:52:00,33.0,27.0,-100.00,SSE,157,2.0,-999.0,80,-99.99,,,-99.99,5.800000,,2013-02-26 00:52:00,
2013-02-25 21:00:00,31.0,27.0,-100.00,SSE,157,1.0,-999.0,83,-99.99,,,-99.99,0.000000,,2013-02-26 03:00:00,
2013-02-25 21:42:00,31.0,27.0,-100.00,SSE,157,1.0,-999.0,83,-99.99,,,-99.99,0.000000,,2013-02-26 03:42:00,
2013-02-25 21:52:00,31.0,27.0,-100.00,SSE,157,1.0,-999.0,83,-99.99,,,-99.99,0.000000,,2013-02-26 03:52:00,